createdAt,value
2018-10-21T00:01:52.563Z,102410.14
2018-10-21T00:12:23.692Z,102421.75
2018-10-21T00:17:16.402Z,102421.01
2018-10-21T00:22:09.001Z,102418.53
2018-10-21T00:27:01.638Z,102431.06
2018-10-21T00:31:54.255Z,102427.57
2018-10-21T00:36:46.863Z,102430.50
2018-10-21T00:41:39.582Z,102428.53
2018-10-21T00:46:32.270Z,102424.85
2018-10-21T00:51:25.066Z,102423.20
2018-10-21T00:56:18.557Z,102421.20
2018-10-21T01:01:11.426Z,102421.28
2018-10-21T01:06:04.204Z,102419.28
2018-10-21T01:10:57.073Z,102420.69
2018-10-21T01:15:49.692Z,102428.12
2018-10-21T01:20:42.283Z,102417.72
2018-10-21T01:25:34.921Z,102417.72
2018-10-21T01:30:27.509Z,102420.13
2018-10-21T01:35:20.161Z,102413.61
2018-10-21T01:41:02.357Z,102420.56
2018-10-21T01:45:55.486Z,102411.48
2018-10-21T01:50:48.077Z,102405.62
2018-10-21T01:55:40.724Z,102395.42
2018-10-21T02:00:33.691Z,102395.77
2018-10-21T02:05:26.583Z,102413.00
2018-10-21T02:10:19.174Z,102409.39
2018-10-21T02:15:12.529Z,102405.75
2018-10-21T02:20:05.709Z,102408.45
2018-10-21T02:24:58.338Z,102405.83
2018-10-21T02:29:50.962Z,102410.41
2018-10-21T02:34:43.530Z,102410.94
2018-10-21T02:39:36.110Z,102416.18
2018-10-21T02:44:28.680Z,102415.02
2018-10-21T02:49:21.662Z,102428.78
2018-10-21T02:54:14.283Z,102421.77
2018-10-21T02:59:07.008Z,102425.64
2018-10-21T03:03:59.652Z,102428.16
2018-10-21T03:08:52.309Z,102441.45
2018-10-21T03:13:44.931Z,102436.59
2018-10-21T03:18:37.586Z,102434.44
2018-10-21T03:23:30.227Z,102441.69
2018-10-21T03:28:22.866Z,102434.30
2018-10-21T03:33:15.740Z,102436.69
2018-10-21T03:38:08.435Z,102447.23
2018-10-21T03:43:01.086Z,102447.06
2018-10-21T03:47:54.088Z,102454.30
2018-10-21T03:52:46.848Z,102453.45
2018-10-21T03:57:39.517Z,102464.51
2018-10-21T04:02:32.114Z,102460.48
2018-10-21T04:07:24.715Z,102456.16
2018-10-21T04:12:17.289Z,102458.83
2018-10-21T04:17:09.919Z,102460.84
2018-10-21T04:22:02.596Z,102460.16
2018-10-21T04:26:55.148Z,102466.55
2018-10-21T04:31:47.779Z,102464.55
2018-10-21T04:36:40.460Z,102461.19
2018-10-21T04:41:33.067Z,102462.35
2018-10-21T04:46:25.721Z,102464.04
2018-10-21T04:51:18.329Z,102460.51
2018-10-21T04:56:10.895Z,102460.67
2018-10-21T05:01:03.678Z,102451.81
2018-10-21T05:05:56.291Z,102451.30
2018-10-21T05:10:48.897Z,102462.16
2018-10-21T05:15:41.513Z,102470.22
2018-10-21T05:20:34.148Z,102468.03
2018-10-21T05:25:26.793Z,102465.50
2018-10-21T05:30:19.392Z,102464.83
2018-10-21T05:35:13.392Z,102471.84
2018-10-21T05:40:08.240Z,102478.86
2018-10-21T05:45:00.904Z,102480.21
2018-10-21T05:49:53.522Z,102472.33
2018-10-21T05:54:46.106Z,102476.17
2018-10-21T05:59:38.710Z,102469.97
2018-10-21T06:04:31.322Z,102474.81
2018-10-21T06:09:24.002Z,102476.34
2018-10-21T06:14:16.609Z,102483.84
2018-10-21T06:19:12.889Z,102485.17
2018-10-21T06:24:05.516Z,102497.41
2018-10-21T06:28:58.227Z,102508.98
2018-10-21T06:33:50.863Z,102509.66
2018-10-21T06:38:43.597Z,102511.05
2018-10-21T06:43:36.382Z,102521.09
2018-10-21T06:48:29.050Z,102526.80
2018-10-21T06:53:21.722Z,102529.19
2018-10-21T06:58:14.368Z,102534.73
2018-10-21T07:03:07.084Z,102538.58
2018-10-21T07:07:59.768Z,102533.91
2018-10-21T07:12:52.398Z,102539.77
2018-10-21T07:17:46.536Z,102539.11
2018-10-21T07:22:39.678Z,102543.65
2018-10-21T07:27:32.260Z,102545.33
2018-10-21T07:32:24.871Z,102560.40
2018-10-21T07:37:17.618Z,102562.39
2018-10-21T07:42:10.318Z,102563.41
2018-10-21T07:47:02.985Z,102567.05
2018-10-21T07:51:55.604Z,102567.36
2018-10-21T07:56:48.354Z,102567.99
2018-10-21T08:01:40.997Z,102565.27
2018-10-21T08:06:51.213Z,102566.56
2018-10-21T08:11:43.915Z,102568.59
2018-10-21T08:16:36.681Z,102564.57
2018-10-21T08:21:29.320Z,102574.32
2018-10-21T08:26:21.926Z,102569.56
2018-10-21T08:31:14.642Z,102569.10
2018-10-21T08:36:11.650Z,102571.03
2018-10-21T08:41:07.152Z,102569.88
2018-10-21T08:46:03.463Z,102571.40
2018-10-21T08:51:00.884Z,102569.02
2018-10-21T08:55:55.629Z,102569.64
2018-10-21T09:00:53.352Z,102570.69
2018-10-21T09:05:53.691Z,102565.97
2018-10-21T09:10:46.423Z,102564.45
2018-10-21T09:15:39.192Z,102567.04
2018-10-21T09:20:32.046Z,102555.31
2018-10-21T09:25:24.896Z,102556.12
2018-10-21T09:30:17.704Z,102560.20
2018-10-21T09:35:14.228Z,102554.28
2018-10-21T09:40:10.614Z,102553.48
2018-10-21T09:45:03.900Z,102544.72
2018-10-21T09:49:58.827Z,102555.51
2018-10-21T09:54:51.711Z,102555.34
2018-10-21T09:59:44.542Z,102539.20
2018-10-21T10:04:37.446Z,102532.44
2018-10-21T10:09:30.434Z,102536.33
2018-10-21T10:14:23.338Z,102531.64
2018-10-21T10:19:16.697Z,102523.34
2018-10-21T10:24:09.628Z,102525.98
2018-10-21T10:29:02.399Z,102517.08
2018-10-21T10:33:55.467Z,102504.62
2018-10-21T10:38:48.318Z,102497.58
2018-10-21T10:43:41.245Z,102503.47
2018-10-21T10:48:34.396Z,102491.95
2018-10-21T10:53:27.798Z,102488.95
2018-10-21T10:58:20.816Z,102493.11
2018-10-21T11:03:13.887Z,102486.97
2018-10-21T11:08:06.737Z,102479.45
2018-10-21T11:12:59.812Z,102472.55
2018-10-21T11:17:52.870Z,102467.63
2018-10-21T11:22:45.837Z,102468.77
2018-10-21T11:27:38.859Z,102471.55
2018-10-21T11:32:31.923Z,102472.06
2018-10-21T11:37:24.903Z,102462.67
2018-10-21T11:42:17.728Z,102461.77
2018-10-21T11:47:10.773Z,102454.95
2018-10-21T11:52:03.797Z,102450.10
2018-10-21T11:56:56.928Z,102439.89
2018-10-21T12:01:49.900Z,102442.08
2018-10-21T12:06:43.042Z,102441.38
2018-10-21T12:11:35.845Z,102443.48
2018-10-21T12:16:28.599Z,102433.94
2018-10-21T12:21:21.467Z,102438.47
2018-10-21T12:26:14.462Z,102433.23
2018-10-21T12:31:07.425Z,102428.33
2018-10-21T12:36:00.177Z,102437.81
2018-10-21T12:40:53.098Z,102425.41
2018-10-21T12:45:48.914Z,102423.06
2018-10-21T12:50:42.788Z,102413.30
2018-10-21T12:55:41.518Z,102423.48
2018-10-21T13:00:34.410Z,102417.58
2018-10-21T13:05:27.318Z,102411.56
2018-10-21T13:10:20.183Z,102403.97
2018-10-21T13:15:13.084Z,102396.46
2018-10-21T13:20:06.118Z,102402.17
2018-10-21T13:24:59.080Z,102382.59
2018-10-21T13:29:51.982Z,102381.27
2018-10-21T13:34:45.782Z,102384.02
2018-10-21T13:39:38.666Z,102384.68
2018-10-21T13:44:31.463Z,102378.09
2018-10-21T13:49:24.276Z,102372.44
2018-10-21T13:54:17.055Z,102361.63
2018-10-21T13:59:09.952Z,102362.42
2018-10-21T14:04:02.770Z,102357.34
2018-10-21T14:08:55.590Z,102351.16
2018-10-21T14:13:48.276Z,102345.45
2018-10-21T14:18:40.892Z,102349.53
2018-10-21T14:23:33.560Z,102348.17
2018-10-21T14:28:26.185Z,102345.94
2018-10-21T14:33:19.010Z,102345.81
2018-10-21T14:38:11.505Z,102342.20
2018-10-21T14:43:04.010Z,102346.45
2018-10-21T14:47:56.798Z,102342.45
2018-10-21T14:52:49.459Z,102339.38
2018-10-21T14:57:41.987Z,102341.41
2018-10-21T15:02:34.542Z,102339.78
2018-10-21T15:07:27.226Z,102328.79
2018-10-21T15:12:19.887Z,102327.44
2018-10-21T15:17:12.548Z,102329.94
2018-10-21T15:22:05.745Z,102327.72
2018-10-21T15:26:58.573Z,102320.11
2018-10-21T15:31:51.369Z,102323.70
2018-10-21T15:36:44.069Z,102319.15
2018-10-21T15:41:36.690Z,102323.80
2018-10-21T15:46:29.252Z,102320.80
2018-10-21T15:51:21.898Z,102314.37
2018-10-21T15:56:14.787Z,102319.77
2018-10-21T16:01:07.294Z,102319.98
2018-10-21T16:06:00.606Z,102316.42
2018-10-21T16:10:53.394Z,102316.73
2018-10-21T16:15:46.176Z,102318.42
2018-10-21T16:20:38.907Z,102318.66
2018-10-21T16:25:31.703Z,102326.58
2018-10-21T16:30:24.234Z,102329.62
2018-10-21T16:35:16.949Z,102333.39
2018-10-21T16:40:12.243Z,102338.07
2018-10-21T16:45:05.522Z,102333.09
2018-10-21T16:49:58.372Z,102339.04
2018-10-21T16:54:51.165Z,102342.13
2018-10-21T16:59:43.981Z,102336.66
2018-10-21T17:04:36.511Z,102331.68
2018-10-21T17:09:29.295Z,102334.16
2018-10-21T17:14:21.858Z,102341.66
2018-10-21T17:19:14.574Z,102348.41
2018-10-21T17:24:07.199Z,102347.13
2018-10-21T17:28:59.801Z,102345.02
2018-10-21T17:33:52.463Z,102344.36
2018-10-21T17:38:45.088Z,102335.34
2018-10-21T17:43:38.985Z,102330.22
2018-10-21T17:48:31.616Z,102332.53
2018-10-21T17:53:24.455Z,102330.59
2018-10-21T17:58:18.650Z,102323.24
2018-10-21T18:03:13.882Z,102329.70
2018-10-21T18:08:07.108Z,102325.99
2018-10-21T18:13:00.433Z,102324.25
2018-10-21T18:17:53.158Z,102324.77
2018-10-21T18:22:45.946Z,102324.38
2018-10-21T18:27:38.995Z,102328.66
2018-10-21T18:32:31.583Z,102325.34
2018-10-21T18:37:24.168Z,102320.03
2018-10-21T18:42:16.774Z,102317.23
2018-10-21T18:47:09.366Z,102313.06
2018-10-21T18:52:02.068Z,102316.49
2018-10-21T18:56:54.665Z,102312.44
2018-10-21T19:01:47.338Z,102310.36
2018-10-21T19:06:39.976Z,102299.53
2018-10-21T19:11:32.640Z,102300.78
2018-10-21T19:16:25.281Z,102310.05
2018-10-21T19:21:17.839Z,102308.30
2018-10-21T19:26:10.420Z,102301.22
2018-10-21T19:31:03.018Z,102307.77
2018-10-21T19:35:55.599Z,102309.66
2018-10-21T19:40:48.375Z,102316.40
2018-10-21T19:45:40.957Z,102322.88
2018-10-21T19:50:33.555Z,102319.20
2018-10-21T19:55:26.702Z,102317.14
2018-10-21T20:00:19.440Z,102325.67
2018-10-21T20:05:12.127Z,102312.56
2018-10-21T20:10:07.236Z,102316.03
2018-10-21T20:14:59.817Z,102315.72
2018-10-21T20:19:52.409Z,102317.16
2018-10-21T20:24:45.134Z,102308.49
2018-10-21T20:29:37.800Z,102305.98
2018-10-21T20:34:30.414Z,102305.88
2018-10-21T20:39:22.934Z,102305.98
2018-10-21T20:44:15.579Z,102304.71
2018-10-21T20:49:08.277Z,102305.11
2018-10-21T20:54:00.928Z,102310.81
2018-10-21T20:58:53.522Z,102311.92
2018-10-21T21:03:46.157Z,102313.80
2018-10-21T21:08:39.175Z,102313.78
2018-10-21T21:13:31.737Z,102320.39
2018-10-21T21:18:24.366Z,102316.41
2018-10-21T21:23:16.975Z,102312.69
2018-10-21T21:28:09.720Z,102312.27
2018-10-21T21:33:02.461Z,102302.58
2018-10-21T21:37:55.126Z,102299.53
2018-10-21T21:42:47.765Z,102304.66
2018-10-21T21:47:40.357Z,102300.36
2018-10-21T21:52:32.983Z,102304.22
2018-10-21T21:57:25.681Z,102295.67
2018-10-21T22:02:18.255Z,102293.81
2018-10-21T22:07:10.913Z,102287.80
2018-10-21T22:12:03.556Z,102285.56
2018-10-21T22:16:56.173Z,102278.28
2018-10-21T22:21:48.791Z,102280.27
2018-10-21T22:26:41.353Z,102274.36
2018-10-21T22:31:33.973Z,102277.19
2018-10-21T22:36:26.733Z,102267.66
2018-10-21T22:41:19.341Z,102268.36
2018-10-21T22:46:12.146Z,102264.34
2018-10-21T22:51:05.566Z,102266.21
2018-10-21T22:55:58.093Z,102259.76
2018-10-21T23:00:50.752Z,102253.53
2018-10-21T23:05:43.365Z,102254.59
2018-10-21T23:10:36.038Z,102251.41
2018-10-21T23:15:28.666Z,102247.84
2018-10-21T23:20:21.238Z,102256.38
2018-10-21T23:25:13.739Z,102260.39
2018-10-21T23:30:07.441Z,102251.11
2018-10-21T23:35:00.106Z,102249.63
2018-10-21T23:39:52.793Z,102252.45
2018-10-21T23:44:45.529Z,102247.58
2018-10-21T23:49:38.137Z,102229.22
2018-10-21T23:54:31.607Z,102226.34
2018-10-21T23:59:24.823Z,102217.55
